Etusivu
METAR-TAF:

METAR-TAF

Lentoasemat :

Lewis University Airport

Romeoville, Illinois, Yhdysvallat

Leveyspiiri: 41-36-30N, Pituuspiiri: 088-05-39W, korkeus merenpinnasta: 205 m

Tämänhetkinen sää

Tämä raportti tehtiin 29 minuuttia sitten, kello 06.35 UTC
Tuuli 5 kn idästä
Lämpötila 1°C
Kosteus 100%
Ilmanpaine 1020 hPa
Näkyvyys: 16.1 km
selkeää

METAR: KLOT 020635Z AUTO 08005KT 10SM CLR 01/01 A3013 RMK AO2 T00140006

Aika: 02:04 (07:04 UTC)


TAF: puuttuu

Säähavainnot ja -ennusteet yli 4000 lentoasemalta (METAR- ja TAF-raportit).

Käytössä olevat sääasemat on merkitty karttaan keltaisilla ja punaisilla pisteillä.

Aseta hiiri pisteen päälle nähdäksesi sääaseman nimen.

Klikkaa sitten nähdäksesi säähavainnot ja -ennusteet.

Kartan vaihtaminen: klikkaa mustalla rastilla varustettuja vihreitä pisteitä, niin voit zoomata sisään; viivalla varustettua vihreää pistettä, niin voit zoomata ulos tai vihreitä nuolia, niin pääset viereisille kartoille.


METAR-TAF: